sensor_id;sensor_type;location;lat;lon;timestamp;pressure;altitude;pressure_sealevel;temperature;humidity
43480;BME280;29067;35.492;-97.520;2023-05-09T00:01:18;96677.17;;;29.06;37.19
43480;BME280;29067;35.492;-97.520;2023-05-09T00:03:47;96674.75;;;28.63;37.08
43480;BME280;29067;35.492;-97.520;2023-05-09T00:06:15;96678.11;;;29.05;36.95
43480;BME280;29067;35.492;-97.520;2023-05-09T00:08:42;96671.51;;;28.28;37.67
43480;BME280;29067;35.492;-97.520;2023-05-09T00:11:10;96672.47;;;30.15;36.73
43480;BME280;29067;35.492;-97.520;2023-05-09T00:13:39;96668.91;;;30.50;35.83
43480;BME280;29067;35.492;-97.520;2023-05-09T00:16:07;96669.20;;;29.70;36.09
43480;BME280;29067;35.492;-97.520;2023-05-09T00:18:36;96670.75;;;29.67;36.38
43480;BME280;29067;35.492;-97.520;2023-05-09T00:21:05;96671.86;;;30.25;35.93
43480;BME280;29067;35.492;-97.520;2023-05-09T00:23:33;96674.93;;;31.13;35.14
43480;BME280;29067;35.492;-97.520;2023-05-09T00:26:01;96673.28;;;31.08;35.26
43480;BME280;29067;35.492;-97.520;2023-05-09T00:28:29;96670.65;;;30.42;35.76
43480;BME280;29067;35.492;-97.520;2023-05-09T00:30:58;96669.11;;;31.24;34.63
43480;BME280;29067;35.492;-97.520;2023-05-09T00:33:26;96672.14;;;29.33;36.29
43480;BME280;29067;35.492;-97.520;2023-05-09T00:35:53;96667.80;;;30.04;35.51
43480;BME280;29067;35.492;-97.520;2023-05-09T00:38:22;96672.10;;;30.68;35.23
43480;BME280;29067;35.492;-97.520;2023-05-09T00:40:50;96675.01;;;30.75;35.11
43480;BME280;29067;35.492;-97.520;2023-05-09T00:43:20;96677.68;;;29.91;36.01
43480;BME280;29067;35.492;-97.520;2023-05-09T00:45:49;96677.03;;;29.82;36.26
43480;BME280;29067;35.492;-97.520;2023-05-09T00:48:19;96673.72;;;28.94;36.75
43480;BME280;29067;35.492;-97.520;2023-05-09T00:50:48;96676.38;;;29.07;37.35
43480;BME280;29067;35.492;-97.520;2023-05-09T00:53:17;96676.18;;;28.62;37.85
43480;BME280;29067;35.492;-97.520;2023-05-09T00:55:44;96678.54;;;29.13;36.70
43480;BME280;29067;35.492;-97.520;2023-05-09T00:58:12;96675.27;;;30.37;35.59
43480;BME280;29067;35.492;-97.520;2023-05-09T01:00:41;96677.97;;;29.95;36.27
43480;BME280;29067;35.492;-97.520;2023-05-09T01:03:09;96680.00;;;28.87;36.81
43480;BME280;29067;35.492;-97.520;2023-05-09T01:05:46;96687.40;;;29.35;36.03
43480;BME280;29067;35.492;-97.520;2023-05-09T01:08:30;96690.63;;;29.46;35.93
43480;BME280;29067;35.492;-97.520;2023-05-09T01:11:08;96690.64;;;29.68;36.01
43480;BME280;29067;35.492;-97.520;2023-05-09T01:13:46;96693.22;;;28.90;36.94
43480;BME280;29067;35.492;-97.520;2023-05-09T01:16:25;96695.28;;;28.25;36.60
43480;BME280;29067;35.492;-97.520;2023-05-09T01:19:04;96699.58;;;29.98;35.26
43480;BME280;29067;35.492;-97.520;2023-05-09T01:21:37;96704.11;;;29.68;35.68
43480;BME280;29067;35.492;-97.520;2023-05-09T01:24:30;96707.03;;;29.57;35.30
43480;BME280;29067;35.492;-97.520;2023-05-09T01:27:18;96712.99;;;29.42;36.06
43480;BME280;29067;35.492;-97.520;2023-05-09T01:29:54;96717.62;;;29.76;35.18
43480;BME280;29067;35.492;-97.520;2023-05-09T01:32:25;96721.24;;;29.84;35.35
43480;BME280;29067;35.492;-97.520;2023-05-09T01:34:55;96727.87;;;28.31;36.64
43480;BME280;29067;35.492;-97.520;2023-05-09T01:37:29;96738.50;;;27.31;38.80
43480;BME280;29067;35.492;-97.520;2023-05-09T01:40:05;96733.98;;;30.05;36.57
43480;BME280;29067;35.492;-97.520;2023-05-09T01:42:41;96737.43;;;29.66;37.00
43480;BME280;29067;35.492;-97.520;2023-05-09T01:45:11;96747.65;;;28.10;38.93
43480;BME280;29067;35.492;-97.520;2023-05-09T01:47:41;96751.16;;;28.83;38.16
43480;BME280;29067;35.492;-97.520;2023-05-09T01:50:11;96758.72;;;27.43;39.48
43480;BME280;29067;35.492;-97.520;2023-05-09T01:52:48;96757.55;;;28.38;38.56
43480;BME280;29067;35.492;-97.520;2023-05-09T01:55:17;96759.74;;;27.97;38.84
43480;BME280;29067;35.492;-97.520;2023-05-09T01:57:46;96760.66;;;29.70;37.62
43480;BME280;29067;35.492;-97.520;2023-05-09T02:00:15;96771.75;;;27.78;39.13
43480;BME280;29067;35.492;-97.520;2023-05-09T02:02:44;96776.79;;;27.76;39.20
43480;BME280;29067;35.492;-97.520;2023-05-09T02:05:13;96779.81;;;29.02;38.06
43480;BME280;29067;35.492;-97.520;2023-05-09T02:07:49;96783.55;;;28.39;38.27
43480;BME280;29067;35.492;-97.520;2023-05-09T02:10:17;96788.56;;;26.99;39.26
43480;BME280;29067;35.492;-97.520;2023-05-09T02:12:46;96795.86;;;26.71;39.99
43480;BME280;29067;35.492;-97.520;2023-05-09T02:15:21;96798.01;;;27.45;39.64
43480;BME280;29067;35.492;-97.520;2023-05-09T02:17:55;96804.01;;;28.02;39.49
43480;BME280;29067;35.492;-97.520;2023-05-09T02:20:28;96807.43;;;25.83;41.37
43480;BME280;29067;35.492;-97.520;2023-05-09T02:22:57;96807.18;;;27.76;39.68
43480;BME280;29067;35.492;-97.520;2023-05-09T02:25:26;96812.15;;;26.36;41.08
43480;BME280;29067;35.492;-97.520;2023-05-09T02:27:55;96815.09;;;27.25;40.22
43480;BME280;29067;35.492;-97.520;2023-05-09T02:30:25;96823.98;;;26.31;40.97
43480;BME280;29067;35.492;-97.520;2023-05-09T02:33:02;96831.15;;;25.05;43.19
43480;BME280;29067;35.492;-97.520;2023-05-09T02:35:36;96832.07;;;25.66;42.71
43480;BME280;29067;35.492;-97.520;2023-05-09T02:38:06;96834.38;;;26.86;41.07
43480;BME280;29067;35.492;-97.520;2023-05-09T02:40:35;96841.27;;;26.05;42.25
43480;BME280;29067;35.492;-97.520;2023-05-09T02:43:03;96846.64;;;25.14;41.76
43480;BME280;29067;35.492;-97.520;2023-05-09T02:45:33;96852.49;;;24.70;42.58
43480;BME280;29067;35.492;-97.520;2023-05-09T02:48:07;96851.50;;;26.32;41.26
43480;BME280;29067;35.492;-97.520;2023-05-09T02:50:35;96857.51;;;24.90;43.74
43480;BME280;29067;35.492;-97.520;2023-05-09T02:53:03;96856.94;;;25.65;42.75
43480;BME280;29067;35.492;-97.520;2023-05-09T02:55:31;96861.17;;;25.10;43.36
43480;BME280;29067;35.492;-97.520;2023-05-09T02:57:59;96858.56;;;25.59;42.01
43480;BME280;29067;35.492;-97.520;2023-05-09T03:00:27;96863.99;;;24.32;43.15
43480;BME280;29067;35.492;-97.520;2023-05-09T03:02:55;96864.14;;;25.88;42.52
43480;BME280;29067;35.492;-97.520;2023-05-09T03:05:26;96872.62;;;24.64;43.44
43480;BME280;29067;35.492;-97.520;2023-05-09T03:07:54;96877.74;;;23.84;45.08
43480;BME280;29067;35.492;-97.520;2023-05-09T03:10:22;96876.39;;;25.77;43.06
43480;BME280;29067;35.492;-97.520;2023-05-09T03:12:50;96883.42;;;24.91;44.01
43480;BME280;29067;35.492;-97.520;2023-05-09T03:15:18;96886.59;;;25.91;43.01
43480;BME280;29067;35.492;-97.520;2023-05-09T03:17:46;96895.61;;;25.85;43.00
43480;BME280;29067;35.492;-97.520;2023-05-09T03:20:15;96904.49;;;25.39;43.05
43480;BME280;29067;35.492;-97.520;2023-05-09T03:22:43;96913.95;;;24.91;44.22
43480;BME280;29067;35.492;-97.520;2023-05-09T03:25:12;96918.67;;;25.39;43.73
43480;BME280;29067;35.492;-97.520;2023-05-09T03:27:45;96926.97;;;23.62;46.04
43480;BME280;29067;35.492;-97.520;2023-05-09T03:30:14;96924.79;;;24.46;45.06
43480;BME280;29067;35.492;-97.520;2023-05-09T03:32:47;96925.43;;;24.47;45.26
43480;BME280;29067;35.492;-97.520;2023-05-09T03:35:15;96926.25;;;23.68;47.63
43480;BME280;29067;35.492;-97.520;2023-05-09T03:37:43;96932.39;;;23.64;47.12
43480;BME280;29067;35.492;-97.520;2023-05-09T03:40:12;96932.51;;;23.91;46.99
43480;BME280;29067;35.492;-97.520;2023-05-09T03:42:40;96935.82;;;23.39;48.30
43480;BME280;29067;35.492;-97.520;2023-05-09T03:45:14;96932.34;;;23.76;49.24
43480;BME280;29067;35.492;-97.520;2023-05-09T03:47:42;96929.58;;;22.78;50.41
43480;BME280;29067;35.492;-97.520;2023-05-09T03:50:10;96937.14;;;24.55;48.37
43480;BME280;29067;35.492;-97.520;2023-05-09T03:52:38;96938.24;;;24.21;49.05
43480;BME280;29067;35.492;-97.520;2023-05-09T03:55:08;96937.09;;;24.13;50.23
43480;BME280;29067;35.492;-97.520;2023-05-09T03:57:36;96937.82;;;23.64;51.29
43480;BME280;29067;35.492;-97.520;2023-05-09T04:00:06;96942.65;;;23.24;53.05
43480;BME280;29067;35.492;-97.520;2023-05-09T04:02:34;96936.17;;;23.31;53.42
43480;BME280;29067;35.492;-97.520;2023-05-09T04:05:02;96939.14;;;23.86;51.68
43480;BME280;29067;35.492;-97.520;2023-05-09T04:07:30;96942.22;;;22.40;55.63
43480;BME280;29067;35.492;-97.520;2023-05-09T04:09:59;96939.74;;;22.83;55.80
43480;BME280;29067;35.492;-97.520;2023-05-09T04:12:27;96937.03;;;23.25;55.11
43480;BME280;29067;35.492;-97.520;2023-05-09T04:14:54;96938.90;;;22.59;55.91
43480;BME280;29067;35.492;-97.520;2023-05-09T04:17:22;96944.18;;;22.72;56.33
43480;BME280;29067;35.492;-97.520;2023-05-09T04:19:51;96947.73;;;22.37;57.58
43480;BME280;29067;35.492;-97.520;2023-05-09T04:22:19;96952.92;;;22.90;56.29
43480;BME280;29067;35.492;-97.520;2023-05-09T04:24:47;96955.99;;;22.90;57.24
43480;BME280;29067;35.492;-97.520;2023-05-09T04:27:15;96962.98;;;21.28;61.06
43480;BME280;29067;35.492;-97.520;2023-05-09T04:29:43;96963.17;;;21.49;61.28
43480;BME280;29067;35.492;-97.520;2023-05-09T04:32:12;96963.54;;;21.62;61.79
43480;BME280;29067;35.492;-97.520;2023-05-09T04:34:40;96963.12;;;22.12;61.87
43480;BME280;29067;35.492;-97.520;2023-05-09T04:37:07;96971.46;;;22.18;60.91
43480;BME280;29067;35.492;-97.520;2023-05-09T04:39:35;96978.07;;;22.30;60.99
43480;BME280;29067;35.492;-97.520;2023-05-09T04:42:04;96987.14;;;21.62;62.79
43480;BME280;29067;35.492;-97.520;2023-05-09T04:44:32;96990.38;;;21.85;62.43
43480;BME280;29067;35.492;-97.520;2023-05-09T04:47:01;96990.90;;;23.16;60.47
43480;BME280;29067;35.492;-97.520;2023-05-09T04:49:29;96991.30;;;22.66;61.09
43480;BME280;29067;35.492;-97.520;2023-05-09T04:51:57;96992.80;;;23.22;60.13
43480;BME280;29067;35.492;-97.520;2023-05-09T04:54:25;96998.93;;;21.97;63.27
43480;BME280;29067;35.492;-97.520;2023-05-09T04:56:53;97007.94;;;22.48;62.65
43480;BME280;29067;35.492;-97.520;2023-05-09T04:59:31;97006.49;;;23.32;60.79
43480;BME280;29067;35.492;-97.520;2023-05-09T05:01:59;97011.79;;;22.07;63.02
43480;BME280;29067;35.492;-97.520;2023-05-09T05:04:32;97008.51;;;22.82;61.56
43480;BME280;29067;35.492;-97.520;2023-05-09T05:07:00;97005.73;;;23.49;61.62
43480;BME280;29067;35.492;-97.520;2023-05-09T05:09:28;97010.49;;;22.76;62.55
43480;BME280;29067;35.492;-97.520;2023-05-09T05:11:57;97014.26;;;24.07;60.19
43480;BME280;29067;35.492;-97.520;2023-05-09T05:14:25;97015.01;;;24.12;60.69
43480;BME280;29067;35.492;-97.520;2023-05-09T05:16:52;97020.11;;;23.22;61.56
43480;BME280;29067;35.492;-97.520;2023-05-09T05:19:20;97022.30;;;23.04;62.64
43480;BME280;29067;35.492;-97.520;2023-05-09T05:21:47;97027.61;;;23.16;62.98
43480;BME280;29067;35.492;-97.520;2023-05-09T05:24:15;97031.98;;;22.32;64.57
43480;BME280;29067;35.492;-97.520;2023-05-09T05:26:43;97033.57;;;22.84;63.55
43480;BME280;29067;35.492;-97.520;2023-05-09T05:29:12;97031.41;;;22.74;62.87
43480;BME280;29067;35.492;-97.520;2023-05-09T05:31:40;97027.22;;;23.13;61.79
43480;BME280;29067;35.492;-97.520;2023-05-09T05:34:08;97036.79;;;23.29;62.13
43480;BME280;29067;35.492;-97.520;2023-05-09T05:36:36;97036.68;;;21.78;62.67
43480;BME280;29067;35.492;-97.520;2023-05-09T05:39:04;97043.25;;;23.02;61.62
43480;BME280;29067;35.492;-97.520;2023-05-09T05:41:31;97040.51;;;21.14;66.19
43480;BME280;29067;35.492;-97.520;2023-05-09T05:44:00;97035.04;;;21.49;65.62
43480;BME280;29067;35.492;-97.520;2023-05-09T05:46:28;97028.09;;;21.19;66.38
43480;BME280;29067;35.492;-97.520;2023-05-09T05:48:56;97021.83;;;21.86;66.69
43480;BME280;29067;35.492;-97.520;2023-05-09T05:51:24;97019.94;;;21.19;67.01
43480;BME280;29067;35.492;-97.520;2023-05-09T05:53:52;97012.93;;;22.08;65.25
43480;BME280;29067;35.492;-97.520;2023-05-09T05:56:25;97009.17;;;22.32;64.60
43480;BME280;29067;35.492;-97.520;2023-05-09T05:58:54;97003.97;;;21.37;67.18
43480;BME280;29067;35.492;-97.520;2023-05-09T06:01:21;96997.59;;;22.19;66.82
43480;BME280;29067;35.492;-97.520;2023-05-09T06:03:50;97002.30;;;22.41;64.92
43480;BME280;29067;35.492;-97.520;2023-05-09T06:06:17;97000.86;;;20.54;68.91
43480;BME280;29067;35.492;-97.520;2023-05-09T06:08:45;97003.03;;;21.75;68.75
43480;BME280;29067;35.492;-97.520;2023-05-09T06:11:14;97002.43;;;21.76;68.30
43480;BME280;29067;35.492;-97.520;2023-05-09T06:13:42;96996.34;;;22.13;65.91
43480;BME280;29067;35.492;-97.520;2023-05-09T06:16:11;96996.83;;;21.60;68.68
43480;BME280;29067;35.492;-97.520;2023-05-09T06:18:50;96992.03;;;22.38;67.18
43480;BME280;29067;35.492;-97.520;2023-05-09T06:21:19;96985.69;;;22.90;64.14
43480;BME280;29067;35.492;-97.520;2023-05-09T06:23:48;96990.22;;;22.26;66.64
43480;BME280;29067;35.492;-97.520;2023-05-09T06:26:22;96989.44;;;22.02;69.47
43480;BME280;29067;35.492;-97.520;2023-05-09T06:28:50;96987.97;;;21.62;68.00
43480;BME280;29067;35.492;-97.520;2023-05-09T06:31:20;96984.02;;;23.02;65.91
43480;BME280;29067;35.492;-97.520;2023-05-09T06:33:47;96983.50;;;23.31;64.28
43480;BME280;29067;35.492;-97.520;2023-05-09T06:36:15;96977.10;;;23.84;62.96
43480;BME280;29067;35.492;-97.520;2023-05-09T06:38:43;96976.35;;;23.16;64.92
43480;BME280;29067;35.492;-97.520;2023-05-09T06:41:10;96975.99;;;22.52;66.33
43480;BME280;29067;35.492;-97.520;2023-05-09T06:43:39;96974.40;;;22.72;65.89
43480;BME280;29067;35.492;-97.520;2023-05-09T06:46:07;96967.88;;;22.87;65.71
43480;BME280;29067;35.492;-97.520;2023-05-09T06:48:36;96958.74;;;23.01;65.37
43480;BME280;29067;35.492;-97.520;2023-05-09T06:51:04;96953.18;;;21.94;67.53
43480;BME280;29067;35.492;-97.520;2023-05-09T06:53:32;96946.74;;;21.87;68.64
43480;BME280;29067;35.492;-97.520;2023-05-09T06:56:01;96946.96;;;21.73;71.58
43480;BME280;29067;35.492;-97.520;2023-05-09T06:58:34;96949.25;;;22.19;70.90
43480;BME280;29067;35.492;-97.520;2023-05-09T07:01:02;96949.89;;;21.39;72.01
43480;BME280;29067;35.492;-97.520;2023-05-09T07:03:31;96947.05;;;21.78;70.68
43480;BME280;29067;35.492;-97.520;2023-05-09T07:05:59;96949.46;;;21.56;73.30
43480;BME280;29067;35.492;-97.520;2023-05-09T07:08:27;96954.53;;;20.49;76.30
43480;BME280;29067;35.492;-97.520;2023-05-09T07:10:54;96950.06;;;21.51;72.62
43480;BME280;29067;35.492;-97.520;2023-05-09T07:13:22;96948.83;;;20.96;75.64
43480;BME280;29067;35.492;-97.520;2023-05-09T07:15:50;96952.23;;;19.86;81.30
43480;BME280;29067;35.492;-97.520;2023-05-09T07:18:18;96945.49;;;20.69;78.18
43480;BME280;29067;35.492;-97.520;2023-05-09T07:20:47;96940.88;;;21.74;73.72
43480;BME280;29067;35.492;-97.520;2023-05-09T07:23:15;96940.30;;;21.05;76.31
43480;BME280;29067;35.492;-97.520;2023-05-09T07:25:43;96936.63;;;20.81;75.53
43480;BME280;29067;35.492;-97.520;2023-05-09T07:28:16;96935.20;;;21.18;76.33
43480;BME280;29067;35.492;-97.520;2023-05-09T07:30:44;96932.75;;;20.89;77.45
43480;BME280;29067;35.492;-97.520;2023-05-09T07:33:12;96928.34;;;22.52;70.98
43480;BME280;29067;35.492;-97.520;2023-05-09T07:35:41;96930.75;;;22.05;71.80
43480;BME280;29067;35.492;-97.520;2023-05-09T07:38:09;96933.18;;;20.41;79.25
43480;BME280;29067;35.492;-97.520;2023-05-09T07:40:36;96928.87;;;20.57;82.14
43480;BME280;29067;35.492;-97.520;2023-05-09T07:43:04;96925.48;;;21.05;78.65
43480;BME280;29067;35.492;-97.520;2023-05-09T07:45:33;96923.61;;;20.84;78.96
43480;BME280;29067;35.492;-97.520;2023-05-09T07:48:01;96932.30;;;19.96;82.50
43480;BME280;29067;35.492;-97.520;2023-05-09T07:50:29;96921.64;;;20.42;81.00
43480;BME280;29067;35.492;-97.520;2023-05-09T07:52:58;96917.80;;;21.50;77.35
43480;BME280;29067;35.492;-97.520;2023-05-09T07:55:25;96927.21;;;22.11;74.37
43480;BME280;29067;35.492;-97.520;2023-05-09T07:57:53;96932.47;;;22.25;74.44
43480;BME280;29067;35.492;-97.520;2023-05-09T08:00:26;96931.36;;;21.20;77.66
43480;BME280;29067;35.492;-97.520;2023-05-09T08:02:54;96930.80;;;21.82;75.55
43480;BME280;29067;35.492;-97.520;2023-05-09T08:05:23;96937.90;;;19.46;85.11
43480;BME280;29067;35.492;-97.520;2023-05-09T08:07:51;96935.19;;;20.80;80.55
43480;BME280;29067;35.492;-97.520;2023-05-09T08:10:19;96935.31;;;22.02;75.53
43480;BME280;29067;35.492;-97.520;2023-05-09T08:12:47;96933.24;;;21.27;79.68
43480;BME280;29067;35.492;-97.520;2023-05-09T08:15:15;96926.32;;;21.55;78.66
43480;BME280;29067;35.492;-97.520;2023-05-09T08:17:43;96924.78;;;20.86;79.39
43480;BME280;29067;35.492;-97.520;2023-05-09T08:20:12;96919.36;;;21.17;79.65
43480;BME280;29067;35.492;-97.520;2023-05-09T08:22:40;96917.47;;;19.61;83.50
43480;BME280;29067;35.492;-97.520;2023-05-09T08:25:09;96916.53;;;21.94;78.02
43480;BME280;29067;35.492;-97.520;2023-05-09T08:27:43;96915.63;;;21.48;78.22
43480;BME280;29067;35.492;-97.520;2023-05-09T08:30:12;96919.16;;;20.22;84.14
43480;BME280;29067;35.492;-97.520;2023-05-09T08:32:40;96919.20;;;20.74;81.44
43480;BME280;29067;35.492;-97.520;2023-05-09T08:35:09;96925.62;;;20.96;79.65
43480;BME280;29067;35.492;-97.520;2023-05-09T08:37:37;96930.25;;;21.23;79.47
43480;BME280;29067;35.492;-97.520;2023-05-09T08:40:06;96927.20;;;21.34;79.97
43480;BME280;29067;35.492;-97.520;2023-05-09T08:42:36;96933.06;;;21.38;80.08
43480;BME280;29067;35.492;-97.520;2023-05-09T08:45:07;96933.55;;;20.49;83.49
43480;BME280;29067;35.492;-97.520;2023-05-09T08:47:37;96927.36;;;20.96;83.99
43480;BME280;29067;35.492;-97.520;2023-05-09T08:50:07;96923.64;;;20.14;84.76
43480;BME280;29067;35.492;-97.520;2023-05-09T08:52:35;96926.95;;;20.60;82.69
43480;BME280;29067;35.492;-97.520;2023-05-09T08:55:04;96929.00;;;21.91;77.11
43480;BME280;29067;35.492;-97.520;2023-05-09T08:57:32;96929.38;;;21.02;79.59
43480;BME280;29067;35.492;-97.520;2023-05-09T09:00:01;96934.49;;;20.53;83.60
43480;BME280;29067;35.492;-97.520;2023-05-09T09:02:29;96925.41;;;21.57;80.38
43480;BME280;29067;35.492;-97.520;2023-05-09T09:04:57;96930.85;;;20.79;82.78
43480;BME280;29067;35.492;-97.520;2023-05-09T09:07:27;96945.89;;;22.43;77.09
43480;BME280;29067;35.492;-97.520;2023-05-09T09:09:57;96945.38;;;21.15;80.41
43480;BME280;29067;35.492;-97.520;2023-05-09T09:12:25;96945.53;;;21.83;78.45
43480;BME280;29067;35.492;-97.520;2023-05-09T09:14:54;96952.49;;;22.16;78.05
43480;BME280;29067;35.492;-97.520;2023-05-09T09:17:25;96953.64;;;20.96;80.33
43480;BME280;29067;35.492;-97.520;2023-05-09T09:19:57;96960.77;;;19.99;86.11
43480;BME280;29067;35.492;-97.520;2023-05-09T09:22:29;96949.23;;;22.01;81.68
43480;BME280;29067;35.492;-97.520;2023-05-09T09:24:59;96948.59;;;20.49;88.91
43480;BME280;29067;35.492;-97.520;2023-05-09T09:27:26;96946.85;;;20.77;84.50
43480;BME280;29067;35.492;-97.520;2023-05-09T09:29:55;96935.61;;;21.32;82.95
43480;BME280;29067;35.492;-97.520;2023-05-09T09:32:33;96927.08;;;21.59;83.08
43480;BME280;29067;35.492;-97.520;2023-05-09T09:35:07;96923.90;;;21.01;86.06
43480;BME280;29067;35.492;-97.520;2023-05-09T09:37:37;96926.61;;;20.15;95.24
43480;BME280;29067;35.492;-97.520;2023-05-09T09:40:08;96924.57;;;19.91;94.95
43480;BME280;29067;35.492;-97.520;2023-05-09T09:42:41;96926.21;;;19.99;97.85
43480;BME280;29067;35.492;-97.520;2023-05-09T09:45:12;96933.09;;;19.44;100.00
43480;BME280;29067;35.492;-97.520;2023-05-09T09:47:42;96928.89;;;20.55;94.80
43480;BME280;29067;35.492;-97.520;2023-05-09T09:50:19;96932.70;;;20.36;95.49
43480;BME280;29067;35.492;-97.520;2023-05-09T09:52:51;96943.02;;;20.48;94.46
43480;BME280;29067;35.492;-97.520;2023-05-09T09:55:21;96935.46;;;18.21;100.00
43480;BME280;29067;35.492;-97.520;2023-05-09T09:57:53;96927.04;;;18.30;100.00
43480;BME280;29067;35.492;-97.520;2023-05-09T10:00:25;96931.89;;;19.38;100.00
43480;BME280;29067;35.492;-97.520;2023-05-09T10:02:54;96932.61;;;19.95;100.00
43480;BME280;29067;35.492;-97.520;2023-05-09T10:05:24;96929.50;;;19.71;100.00
43480;BME280;29067;35.492;-97.520;2023-05-09T10:07:55;96927.97;;;20.33;99.94
43480;BME280;29067;35.492;-97.520;2023-05-09T10:10:25;96934.70;;;19.84;99.80
43480;BME280;29067;35.492;-97.520;2023-05-09T10:12:57;96937.37;;;20.72;98.42
43480;BME280;29067;35.492;-97.520;2023-05-09T10:15:26;96938.05;;;20.23;100.00
43480;BME280;29067;35.492;-97.520;2023-05-09T10:17:57;96936.00;;;20.38;97.62
43480;BME280;29067;35.492;-97.520;2023-05-09T10:20:25;96930.16;;;19.86;100.00
43480;BME280;29067;35.492;-97.520;2023-05-09T10:22:56;96934.01;;;19.62;100.00
43480;BME280;29067;35.492;-97.520;2023-05-09T10:25:30;96937.35;;;20.14;100.00
43480;BME280;29067;35.492;-97.520;2023-05-09T10:28:01;96934.46;;;20.35;100.00
43480;BME280;29067;35.492;-97.520;2023-05-09T10:30:32;96937.59;;;20.48;100.00
43480;BME280;29067;35.492;-97.520;2023-05-09T10:33:06;96939.57;;;19.77;100.00
43480;BME280;29067;35.492;-97.520;2023-05-09T10:35:36;96941.46;;;20.81;97.95
43480;BME280;29067;35.492;-97.520;2023-05-09T10:38:07;96944.41;;;19.95;100.00
43480;BME280;29067;35.492;-97.520;2023-05-09T10:40:36;96941.68;;;19.76;100.00
43480;BME280;29067;35.492;-97.520;2023-05-09T10:43:04;96948.70;;;19.24;100.00
43480;BME280;29067;35.492;-97.520;2023-05-09T10:45:33;96937.03;;;18.61;100.00
43480;BME280;29067;35.492;-97.520;2023-05-09T10:48:03;96922.53;;;19.23;100.00
43480;BME280;29067;35.492;-97.520;2023-05-09T10:50:32;96921.18;;;19.82;100.00
43480;BME280;29067;35.492;-97.520;2023-05-09T10:53:09;96929.56;;;19.95;100.00
43480;BME280;29067;35.492;-97.520;2023-05-09T10:55:38;96919.49;;;19.79;100.00
43480;BME280;29067;35.492;-97.520;2023-05-09T10:58:24;96923.14;;;20.96;100.00
43480;BME280;29067;35.492;-97.520;2023-05-09T11:03:06;96936.03;;;20.43;100.00
43480;BME280;29067;35.492;-97.520;2023-05-09T11:05:38;96948.17;;;20.10;100.00
43480;BME280;29067;35.492;-97.520;2023-05-09T11:08:24;96951.65;;;20.23;100.00
43480;BME280;29067;35.492;-97.520;2023-05-09T11:10:53;96951.26;;;20.52;100.00
43480;BME280;29067;35.492;-97.520;2023-05-09T11:13:23;96950.84;;;20.98;100.00
43480;BME280;29067;35.492;-97.520;2023-05-09T11:16:07;96953.60;;;20.18;100.00
43480;BME280;29067;35.492;-97.520;2023-05-09T11:18:49;96957.72;;;20.36;100.00
43480;BME280;29067;35.492;-97.520;2023-05-09T11:21:18;96960.63;;;20.21;100.00
43480;BME280;29067;35.492;-97.520;2023-05-09T11:23:47;96962.82;;;20.31;100.00
43480;BME280;29067;35.492;-97.520;2023-05-09T11:26:16;96966.22;;;20.70;100.00
43480;BME280;29067;35.492;-97.520;2023-05-09T11:28:52;96966.01;;;19.53;100.00
43480;BME280;29067;35.492;-97.520;2023-05-09T11:31:20;96956.73;;;20.97;99.23
43480;BME280;29067;35.492;-97.520;2023-05-09T11:33:49;96957.55;;;19.79;100.00
43480;BME280;29067;35.492;-97.520;2023-05-09T11:36:19;96960.52;;;21.17;96.63
43480;BME280;29067;35.492;-97.520;2023-05-09T11:38:51;96967.64;;;19.66;100.00
43480;BME280;29067;35.492;-97.520;2023-05-09T11:41:26;96971.70;;;19.76;100.00
43480;BME280;29067;35.492;-97.520;2023-05-09T11:43:55;96972.29;;;20.61;100.00
43480;BME280;29067;35.492;-97.520;2023-05-09T11:46:24;96976.67;;;20.41;100.00
43480;BME280;29067;35.492;-97.520;2023-05-09T11:48:53;96985.58;;;20.30;100.00
43480;BME280;29067;35.492;-97.520;2023-05-09T11:51:21;97008.62;;;20.05;100.00
43480;BME280;29067;35.492;-97.520;2023-05-09T11:53:49;97027.29;;;19.41;100.00
43480;BME280;29067;35.492;-97.520;2023-05-09T11:56:17;97031.89;;;19.06;100.00
43480;BME280;29067;35.492;-97.520;2023-05-09T11:58:45;97021.63;;;19.37;100.00
43480;BME280;29067;35.492;-97.520;2023-05-09T12:01:13;97019.97;;;19.93;100.00
43480;BME280;29067;35.492;-97.520;2023-05-09T12:03:43;97029.63;;;19.07;100.00
43480;BME280;29067;35.492;-97.520;2023-05-09T12:06:15;97046.67;;;19.75;100.00
43480;BME280;29067;35.492;-97.520;2023-05-09T12:08:43;97053.40;;;19.98;100.00
43480;BME280;29067;35.492;-97.520;2023-05-09T12:11:12;97049.06;;;19.79;100.00
43480;BME280;29067;35.492;-97.520;2023-05-09T12:13:46;97045.38;;;19.79;100.00
43480;BME280;29067;35.492;-97.520;2023-05-09T12:16:15;97049.52;;;19.11;100.00
43480;BME280;29067;35.492;-97.520;2023-05-09T12:18:46;97043.81;;;18.82;100.00
43480;BME280;29067;35.492;-97.520;2023-05-09T12:21:14;97040.33;;;19.20;100.00
43480;BME280;29067;35.492;-97.520;2023-05-09T12:23:42;97045.72;;;19.12;100.00
43480;BME280;29067;35.492;-97.520;2023-05-09T12:26:10;97045.90;;;19.73;100.00
43480;BME280;29067;35.492;-97.520;2023-05-09T12:28:39;97037.66;;;19.65;100.00
43480;BME280;29067;35.492;-97.520;2023-05-09T12:31:07;97042.22;;;20.32;95.68
43480;BME280;29067;35.492;-97.520;2023-05-09T12:33:36;97052.46;;;21.21;89.23
43480;BME280;29067;35.492;-97.520;2023-05-09T12:36:09;97057.03;;;20.07;90.52
43480;BME280;29067;35.492;-97.520;2023-05-09T12:38:37;97049.52;;;20.37;89.42
43480;BME280;29067;35.492;-97.520;2023-05-09T12:41:07;97067.41;;;19.94;90.30
43480;BME280;29067;35.492;-97.520;2023-05-09T12:43:37;97049.11;;;20.78;88.61
43480;BME280;29067;35.492;-97.520;2023-05-09T12:46:06;97019.53;;;21.71;84.28
43480;BME280;29067;35.492;-97.520;2023-05-09T12:48:36;97045.62;;;20.25;92.70
43480;BME280;29067;35.492;-97.520;2023-05-09T12:51:05;97049.83;;;20.71;88.60
43480;BME280;29067;35.492;-97.520;2023-05-09T12:53:38;97026.99;;;20.76;88.82